sensor_id;sensor_type;location;lat;lon;timestamp;P1;durP1;ratioP1;P2;durP2;ratioP2
27402;SDS011;14862;49.494;8.530;2023-08-06T00:01:31;6.20;;;4.43;;
27402;SDS011;14862;49.494;8.530;2023-08-06T00:03:56;10.07;;;5.20;;
27402;SDS011;14862;49.494;8.530;2023-08-06T00:06:22;7.35;;;5.00;;
27402;SDS011;14862;49.494;8.530;2023-08-06T00:08:47;9.23;;;4.57;;
27402;SDS011;14862;49.494;8.530;2023-08-06T00:11:12;7.70;;;5.10;;
27402;SDS011;14862;49.494;8.530;2023-08-06T00:13:38;5.32;;;4.22;;
27402;SDS011;14862;49.494;8.530;2023-08-06T00:16:10;6.20;;;4.20;;
27402;SDS011;14862;49.494;8.530;2023-08-06T00:18:35;5.88;;;4.47;;
27402;SDS011;14862;49.494;8.530;2023-08-06T00:21:00;6.57;;;4.80;;
27402;SDS011;14862;49.494;8.530;2023-08-06T00:23:25;8.77;;;4.90;;
27402;SDS011;14862;49.494;8.530;2023-08-06T00:25:50;6.43;;;4.70;;
27402;SDS011;14862;49.494;8.530;2023-08-06T00:28:15;8.83;;;5.20;;
27402;SDS011;14862;49.494;8.530;2023-08-06T00:30:41;6.93;;;5.20;;
27402;SDS011;14862;49.494;8.530;2023-08-06T00:33:06;7.23;;;5.27;;
27402;SDS011;14862;49.494;8.530;2023-08-06T00:35:31;6.77;;;4.60;;
27402;SDS011;14862;49.494;8.530;2023-08-06T00:37:56;5.63;;;4.43;;
27402;SDS011;14862;49.494;8.530;2023-08-06T00:40:21;5.80;;;4.33;;
27402;SDS011;14862;49.494;8.530;2023-08-06T00:42:47;5.90;;;4.90;;
27402;SDS011;14862;49.494;8.530;2023-08-06T00:45:13;4.68;;;3.95;;
27402;SDS011;14862;49.494;8.530;2023-08-06T00:47:38;4.70;;;4.13;;
27402;SDS011;14862;49.494;8.530;2023-08-06T00:50:04;6.68;;;4.50;;
27402;SDS011;14862;49.494;8.530;2023-08-06T00:52:30;4.15;;;3.75;;
27402;SDS011;14862;49.494;8.530;2023-08-06T00:54:56;7.47;;;3.60;;
27402;SDS011;14862;49.494;8.530;2023-08-06T00:57:21;4.03;;;3.63;;
27402;SDS011;14862;49.494;8.530;2023-08-06T00:59:48;5.75;;;4.28;;
27402;SDS011;14862;49.494;8.530;2023-08-06T01:02:14;4.03;;;3.60;;
27402;SDS011;14862;49.494;8.530;2023-08-06T01:04:39;3.65;;;3.33;;
27402;SDS011;14862;49.494;8.530;2023-08-06T01:07:19;5.75;;;3.92;;
27402;SDS011;14862;49.494;8.530;2023-08-06T01:17:38;4.45;;;3.50;;
27402;SDS011;14862;49.494;8.530;2023-08-06T01:20:04;4.30;;;3.38;;
27402;SDS011;14862;49.494;8.530;2023-08-06T01:22:29;5.70;;;3.70;;
27402;SDS011;14862;49.494;8.530;2023-08-06T01:24:54;3.45;;;3.15;;
27402;SDS011;14862;49.494;8.530;2023-08-06T01:27:23;4.63;;;2.92;;
27402;SDS011;14862;49.494;8.530;2023-08-06T01:30:03;3.83;;;2.97;;
27402;SDS011;14862;49.494;8.530;2023-08-06T01:32:32;7.18;;;4.78;;
27402;SDS011;14862;49.494;8.530;2023-08-06T01:34:59;4.60;;;3.30;;
27402;SDS011;14862;49.494;8.530;2023-08-06T01:37:24;3.92;;;3.40;;
27402;SDS011;14862;49.494;8.530;2023-08-06T01:39:50;4.22;;;2.78;;
27402;SDS011;14862;49.494;8.530;2023-08-06T01:42:15;4.30;;;2.90;;
27402;SDS011;14862;49.494;8.530;2023-08-06T01:44:40;3.83;;;3.00;;
27402;SDS011;14862;49.494;8.530;2023-08-06T01:47:05;4.90;;;2.88;;
27402;SDS011;14862;49.494;8.530;2023-08-06T01:49:31;3.35;;;2.95;;
27402;SDS011;14862;49.494;8.530;2023-08-06T01:51:56;4.50;;;3.03;;
27402;SDS011;14862;49.494;8.530;2023-08-06T01:54:21;3.50;;;2.93;;
27402;SDS011;14862;49.494;8.530;2023-08-06T01:56:47;3.95;;;2.90;;
27402;SDS011;14862;49.494;8.530;2023-08-06T01:59:12;3.40;;;2.93;;
27402;SDS011;14862;49.494;8.530;2023-08-06T02:01:38;4.00;;;2.97;;
27402;SDS011;14862;49.494;8.530;2023-08-06T02:04:03;4.93;;;3.43;;
27402;SDS011;14862;49.494;8.530;2023-08-06T02:06:28;5.30;;;3.27;;
27402;SDS011;14862;49.494;8.530;2023-08-06T02:08:53;6.45;;;3.33;;
27402;SDS011;14862;49.494;8.530;2023-08-06T02:11:18;3.10;;;2.70;;
27402;SDS011;14862;49.494;8.530;2023-08-06T02:13:44;3.47;;;3.17;;
27402;SDS011;14862;49.494;8.530;2023-08-06T02:16:10;3.22;;;2.70;;
27402;SDS011;14862;49.494;8.530;2023-08-06T02:18:35;3.63;;;2.90;;
27402;SDS011;14862;49.494;8.530;2023-08-06T02:21:00;3.33;;;2.83;;
27402;SDS011;14862;49.494;8.530;2023-08-06T02:23:26;3.93;;;3.10;;
27402;SDS011;14862;49.494;8.530;2023-08-06T02:26:01;4.30;;;2.80;;
27402;SDS011;14862;49.494;8.530;2023-08-06T02:28:26;4.72;;;2.72;;
27402;SDS011;14862;49.494;8.530;2023-08-06T02:30:52;6.07;;;3.10;;
27402;SDS011;14862;49.494;8.530;2023-08-06T02:33:17;5.68;;;2.78;;
27402;SDS011;14862;49.494;8.530;2023-08-06T02:35:42;5.35;;;2.58;;
27402;SDS011;14862;49.494;8.530;2023-08-06T02:38:07;4.27;;;2.80;;
27402;SDS011;14862;49.494;8.530;2023-08-06T02:40:33;2.42;;;2.20;;
27402;SDS011;14862;49.494;8.530;2023-08-06T02:42:58;3.90;;;2.23;;
27402;SDS011;14862;49.494;8.530;2023-08-06T02:45:23;3.13;;;2.22;;
27402;SDS011;14862;49.494;8.530;2023-08-06T02:47:48;3.93;;;2.50;;
27402;SDS011;14862;49.494;8.530;2023-08-06T02:50:13;3.03;;;2.03;;
27402;SDS011;14862;49.494;8.530;2023-08-06T02:52:39;4.13;;;2.23;;
27402;SDS011;14862;49.494;8.530;2023-08-06T02:55:05;3.42;;;2.25;;
27402;SDS011;14862;49.494;8.530;2023-08-06T02:57:30;2.90;;;2.03;;
27402;SDS011;14862;49.494;8.530;2023-08-06T02:59:56;2.60;;;2.40;;
27402;SDS011;14862;49.494;8.530;2023-08-06T03:02:21;4.10;;;2.70;;
27402;SDS011;14862;49.494;8.530;2023-08-06T03:04:46;2.92;;;2.25;;
27402;SDS011;14862;49.494;8.530;2023-08-06T03:07:11;3.87;;;2.23;;
27402;SDS011;14862;49.494;8.530;2023-08-06T03:09:37;2.85;;;1.77;;
27402;SDS011;14862;49.494;8.530;2023-08-06T03:12:02;4.13;;;2.20;;
27402;SDS011;14862;49.494;8.530;2023-08-06T03:14:27;2.60;;;2.40;;
27402;SDS011;14862;49.494;8.530;2023-08-06T03:16:53;3.77;;;2.50;;
27402;SDS011;14862;49.494;8.530;2023-08-06T03:19:18;2.97;;;2.00;;
27402;SDS011;14862;49.494;8.530;2023-08-06T03:21:43;3.23;;;2.60;;
27402;SDS011;14862;49.494;8.530;2023-08-06T03:24:08;2.53;;;2.10;;
27402;SDS011;14862;49.494;8.530;2023-08-06T03:26:33;2.20;;;1.90;;
27402;SDS011;14862;49.494;8.530;2023-08-06T03:28:59;3.47;;;2.40;;
27402;SDS011;14862;49.494;8.530;2023-08-06T03:31:24;3.43;;;2.20;;
27402;SDS011;14862;49.494;8.530;2023-08-06T03:33:49;5.10;;;2.37;;
27402;SDS011;14862;49.494;8.530;2023-08-06T03:36:14;3.27;;;2.00;;
27402;SDS011;14862;49.494;8.530;2023-08-06T03:38:39;5.63;;;2.30;;
27402;SDS011;14862;49.494;8.530;2023-08-06T03:41:05;4.57;;;2.03;;
27402;SDS011;14862;49.494;8.530;2023-08-06T03:43:30;4.45;;;2.25;;
27402;SDS011;14862;49.494;8.530;2023-08-06T03:45:55;3.22;;;2.25;;
27402;SDS011;14862;49.494;8.530;2023-08-06T03:48:21;2.70;;;1.85;;
27402;SDS011;14862;49.494;8.530;2023-08-06T03:50:46;6.07;;;1.77;;
27402;SDS011;14862;49.494;8.530;2023-08-06T03:53:11;3.00;;;1.90;;
27402;SDS011;14862;49.494;8.530;2023-08-06T03:55:36;4.33;;;1.90;;
27402;SDS011;14862;49.494;8.530;2023-08-06T03:58:01;3.30;;;1.77;;
27402;SDS011;14862;49.494;8.530;2023-08-06T04:00:26;3.27;;;2.30;;
27402;SDS011;14862;49.494;8.530;2023-08-06T04:02:52;2.90;;;1.70;;
27402;SDS011;14862;49.494;8.530;2023-08-06T04:05:17;3.85;;;1.90;;
27402;SDS011;14862;49.494;8.530;2023-08-06T04:07:43;3.03;;;1.70;;
27402;SDS011;14862;49.494;8.530;2023-08-06T04:10:08;3.53;;;1.67;;
27402;SDS011;14862;49.494;8.530;2023-08-06T04:12:33;4.82;;;1.83;;
27402;SDS011;14862;49.494;8.530;2023-08-06T04:15:01;3.15;;;1.83;;
27402;SDS011;14862;49.494;8.530;2023-08-06T04:17:27;3.10;;;2.05;;
27402;SDS011;14862;49.494;8.530;2023-08-06T04:19:53;2.57;;;1.93;;
27402;SDS011;14862;49.494;8.530;2023-08-06T04:22:19;4.30;;;2.22;;
27402;SDS011;14862;49.494;8.530;2023-08-06T04:24:44;4.32;;;1.85;;
27402;SDS011;14862;49.494;8.530;2023-08-06T04:27:10;3.22;;;1.95;;
27402;SDS011;14862;49.494;8.530;2023-08-06T04:29:35;4.70;;;2.10;;
27402;SDS011;14862;49.494;8.530;2023-08-06T04:32:01;4.25;;;1.90;;
27402;SDS011;14862;49.494;8.530;2023-08-06T04:34:26;5.97;;;2.17;;
27402;SDS011;14862;49.494;8.530;2023-08-06T04:36:51;3.07;;;1.70;;
27402;SDS011;14862;49.494;8.530;2023-08-06T04:39:16;5.27;;;1.97;;
27402;SDS011;14862;49.494;8.530;2023-08-06T04:41:41;3.72;;;2.28;;
27402;SDS011;14862;49.494;8.530;2023-08-06T04:44:06;4.33;;;1.37;;
27402;SDS011;14862;49.494;8.530;2023-08-06T04:46:32;3.67;;;1.73;;
27402;SDS011;14862;49.494;8.530;2023-08-06T04:48:57;3.50;;;1.33;;
27402;SDS011;14862;49.494;8.530;2023-08-06T04:51:22;7.63;;;2.07;;
27402;SDS011;14862;49.494;8.530;2023-08-06T04:53:47;4.70;;;1.58;;
27402;SDS011;14862;49.494;8.530;2023-08-06T04:56:12;2.30;;;1.30;;
27402;SDS011;14862;49.494;8.530;2023-08-06T04:58:38;2.30;;;1.30;;
27402;SDS011;14862;49.494;8.530;2023-08-06T05:01:03;3.33;;;1.50;;
27402;SDS011;14862;49.494;8.530;2023-08-06T05:03:28;2.83;;;1.15;;
27402;SDS011;14862;49.494;8.530;2023-08-06T05:05:53;2.75;;;1.10;;
27402;SDS011;14862;49.494;8.530;2023-08-06T05:08:19;5.97;;;1.35;;
27402;SDS011;14862;49.494;8.530;2023-08-06T05:10:44;2.08;;;0.90;;
27402;SDS011;14862;49.494;8.530;2023-08-06T05:13:10;2.95;;;0.90;;
27402;SDS011;14862;49.494;8.530;2023-08-06T05:15:35;1.98;;;0.93;;
27402;SDS011;14862;49.494;8.530;2023-08-06T05:18:00;2.95;;;0.80;;
27402;SDS011;14862;49.494;8.530;2023-08-06T05:20:25;2.70;;;0.95;;
27402;SDS011;14862;49.494;8.530;2023-08-06T05:22:51;5.50;;;1.00;;
27402;SDS011;14862;49.494;8.530;2023-08-06T05:25:16;3.58;;;1.63;;
27402;SDS011;14862;49.494;8.530;2023-08-06T05:27:41;1.53;;;0.90;;
27402;SDS011;14862;49.494;8.530;2023-08-06T05:30:06;7.88;;;1.20;;
27402;SDS011;14862;49.494;8.530;2023-08-06T05:32:32;9.57;;;1.30;;
27402;SDS011;14862;49.494;8.530;2023-08-06T05:34:57;2.92;;;0.88;;
27402;SDS011;14862;49.494;8.530;2023-08-06T05:37:22;2.10;;;1.00;;
27402;SDS011;14862;49.494;8.530;2023-08-06T05:39:47;5.13;;;1.47;;
27402;SDS011;14862;49.494;8.530;2023-08-06T05:42:13;7.97;;;3.13;;
27402;SDS011;14862;49.494;8.530;2023-08-06T05:44:38;1.33;;;1.20;;
27402;SDS011;14862;49.494;8.530;2023-08-06T05:47:03;3.53;;;1.23;;
27402;SDS011;14862;49.494;8.530;2023-08-06T05:49:28;1.80;;;0.90;;
27402;SDS011;14862;49.494;8.530;2023-08-06T05:51:53;4.80;;;1.57;;
27402;SDS011;14862;49.494;8.530;2023-08-06T05:54:19;1.90;;;1.02;;
27402;SDS011;14862;49.494;8.530;2023-08-06T05:56:44;2.70;;;1.25;;
27402;SDS011;14862;49.494;8.530;2023-08-06T05:59:09;2.27;;;1.00;;
27402;SDS011;14862;49.494;8.530;2023-08-06T06:01:34;2.67;;;0.90;;
27402;SDS011;14862;49.494;8.530;2023-08-06T06:04:00;3.63;;;0.98;;
27402;SDS011;14862;49.494;8.530;2023-08-06T06:06:25;3.20;;;1.20;;
27402;SDS011;14862;49.494;8.530;2023-08-06T06:08:50;3.57;;;1.00;;
27402;SDS011;14862;49.494;8.530;2023-08-06T06:11:15;3.77;;;0.93;;
27402;SDS011;14862;49.494;8.530;2023-08-06T06:13:40;5.40;;;1.30;;
27402;SDS011;14862;49.494;8.530;2023-08-06T06:16:06;3.07;;;0.97;;
27402;SDS011;14862;49.494;8.530;2023-08-06T06:18:31;1.97;;;0.90;;
27402;SDS011;14862;49.494;8.530;2023-08-06T06:20:56;5.33;;;1.10;;
27402;SDS011;14862;49.494;8.530;2023-08-06T06:23:21;5.75;;;1.10;;
27402;SDS011;14862;49.494;8.530;2023-08-06T06:25:48;4.10;;;1.25;;
27402;SDS011;14862;49.494;8.530;2023-08-06T06:28:13;3.38;;;1.05;;
27402;SDS011;14862;49.494;8.530;2023-08-06T06:30:38;4.53;;;1.60;;
27402;SDS011;14862;49.494;8.530;2023-08-06T06:33:03;5.23;;;1.30;;
27402;SDS011;14862;49.494;8.530;2023-08-06T06:35:29;3.95;;;1.17;;
27402;SDS011;14862;49.494;8.530;2023-08-06T06:37:54;3.75;;;1.17;;
27402;SDS011;14862;49.494;8.530;2023-08-06T06:40:19;3.10;;;1.23;;
27402;SDS011;14862;49.494;8.530;2023-08-06T06:42:45;5.63;;;1.30;;
27402;SDS011;14862;49.494;8.530;2023-08-06T06:45:10;5.63;;;1.33;;
27402;SDS011;14862;49.494;8.530;2023-08-06T06:47:35;1.40;;;0.75;;
27402;SDS011;14862;49.494;8.530;2023-08-06T06:50:00;3.07;;;1.00;;
27402;SDS011;14862;49.494;8.530;2023-08-06T06:52:25;4.10;;;1.30;;
27402;SDS011;14862;49.494;8.530;2023-08-06T06:54:51;1.50;;;0.70;;
27402;SDS011;14862;49.494;8.530;2023-08-06T06:57:16;2.35;;;1.17;;
27402;SDS011;14862;49.494;8.530;2023-08-06T06:59:41;1.38;;;0.80;;
27402;SDS011;14862;49.494;8.530;2023-08-06T07:02:06;2.55;;;0.75;;
27402;SDS011;14862;49.494;8.530;2023-08-06T07:04:31;2.47;;;0.93;;
27402;SDS011;14862;49.494;8.530;2023-08-06T07:06:57;2.73;;;0.83;;
27402;SDS011;14862;49.494;8.530;2023-08-06T07:09:22;2.33;;;0.70;;
27402;SDS011;14862;49.494;8.530;2023-08-06T07:11:47;2.00;;;0.80;;
27402;SDS011;14862;49.494;8.530;2023-08-06T07:14:12;3.70;;;1.10;;
27402;SDS011;14862;49.494;8.530;2023-08-06T07:16:39;2.00;;;0.60;;
27402;SDS011;14862;49.494;8.530;2023-08-06T07:19:04;3.10;;;0.70;;
27402;SDS011;14862;49.494;8.530;2023-08-06T07:21:31;2.58;;;1.00;;
27402;SDS011;14862;49.494;8.530;2023-08-06T07:23:56;1.58;;;0.90;;
27402;SDS011;14862;49.494;8.530;2023-08-06T07:26:22;1.50;;;0.88;;
27402;SDS011;14862;49.494;8.530;2023-08-06T07:28:47;1.00;;;0.77;;
27402;SDS011;14862;49.494;8.530;2023-08-06T07:31:12;1.27;;;0.83;;
27402;SDS011;14862;49.494;8.530;2023-08-06T07:33:37;2.10;;;0.90;;
27402;SDS011;14862;49.494;8.530;2023-08-06T07:36:10;1.05;;;0.60;;
27402;SDS011;14862;49.494;8.530;2023-08-06T07:38:36;1.27;;;0.60;;
27402;SDS011;14862;49.494;8.530;2023-08-06T07:41:01;7.07;;;0.95;;
27402;SDS011;14862;49.494;8.530;2023-08-06T07:43:27;2.65;;;0.43;;
27402;SDS011;14862;49.494;8.530;2023-08-06T07:45:52;0.50;;;0.40;;
27402;SDS011;14862;49.494;8.530;2023-08-06T07:48:17;3.28;;;0.50;;
27402;SDS011;14862;49.494;8.530;2023-08-06T07:50:42;0.77;;;0.63;;
27402;SDS011;14862;49.494;8.530;2023-08-06T07:53:15;1.27;;;0.50;;
27402;SDS011;14862;49.494;8.530;2023-08-06T07:55:40;1.50;;;0.50;;
27402;SDS011;14862;49.494;8.530;2023-08-06T07:58:05;1.97;;;0.40;;
27402;SDS011;14862;49.494;8.530;2023-08-06T08:00:30;0.60;;;0.20;;
27402;SDS011;14862;49.494;8.530;2023-08-06T08:02:55;1.17;;;0.97;;
27402;SDS011;14862;49.494;8.530;2023-08-06T08:05:20;1.60;;;0.83;;
27402;SDS011;14862;49.494;8.530;2023-08-06T08:07:46;1.45;;;0.82;;
27402;SDS011;14862;49.494;8.530;2023-08-06T08:10:11;0.47;;;0.20;;
27402;SDS011;14862;49.494;8.530;2023-08-06T08:12:36;1.00;;;0.35;;
27402;SDS011;14862;49.494;8.530;2023-08-06T08:15:01;0.70;;;0.52;;
27402;SDS011;14862;49.494;8.530;2023-08-06T08:17:27;2.15;;;0.50;;
27402;SDS011;14862;49.494;8.530;2023-08-06T08:19:52;2.63;;;0.57;;
27402;SDS011;14862;49.494;8.530;2023-08-06T08:22:17;1.13;;;0.47;;
27402;SDS011;14862;49.494;8.530;2023-08-06T08:24:42;0.75;;;0.30;;
27402;SDS011;14862;49.494;8.530;2023-08-06T08:27:07;1.00;;;0.75;;
27402;SDS011;14862;49.494;8.530;2023-08-06T08:29:33;1.40;;;0.90;;
27402;SDS011;14862;49.494;8.530;2023-08-06T08:31:58;1.47;;;0.60;;
27402;SDS011;14862;49.494;8.530;2023-08-06T08:34:23;1.00;;;0.35;;
27402;SDS011;14862;49.494;8.530;2023-08-06T08:36:48;1.80;;;0.97;;
27402;SDS011;14862;49.494;8.530;2023-08-06T08:39:14;0.30;;;0.30;;
27402;SDS011;14862;49.494;8.530;2023-08-06T08:41:40;1.10;;;0.20;;
27402;SDS011;14862;49.494;8.530;2023-08-06T08:44:08;1.85;;;0.32;;
27402;SDS011;14862;49.494;8.530;2023-08-06T08:46:36;0.30;;;0.28;;
27402;SDS011;14862;49.494;8.530;2023-08-06T08:49:03;1.50;;;0.82;;
27402;SDS011;14862;49.494;8.530;2023-08-06T08:51:28;1.75;;;0.40;;
27402;SDS011;14862;49.494;8.530;2023-08-06T08:53:54;2.45;;;0.55;;
27402;SDS011;14862;49.494;8.530;2023-08-06T08:56:21;0.20;;;0.20;;
27402;SDS011;14862;49.494;8.530;2023-08-06T08:58:47;0.47;;;0.30;;
27402;SDS011;14862;49.494;8.530;2023-08-06T09:01:13;0.50;;;0.50;;
27402;SDS011;14862;49.494;8.530;2023-08-06T09:03:38;0.47;;;0.37;;
27402;SDS011;14862;49.494;8.530;2023-08-06T09:06:03;1.33;;;0.50;;
27402;SDS011;14862;49.494;8.530;2023-08-06T09:08:32;0.65;;;0.40;;
27402;SDS011;14862;49.494;8.530;2023-08-06T09:10:59;0.30;;;0.30;;
27402;SDS011;14862;49.494;8.530;2023-08-06T09:13:26;0.45;;;0.40;;
27402;SDS011;14862;49.494;8.530;2023-08-06T09:15:52;0.40;;;0.40;;
27402;SDS011;14862;49.494;8.530;2023-08-06T09:18:24;0.32;;;0.32;;
27402;SDS011;14862;49.494;8.530;2023-08-06T09:20:49;0.98;;;0.45;;
27402;SDS011;14862;49.494;8.530;2023-08-06T09:23:15;0.40;;;0.30;;
27402;SDS011;14862;49.494;8.530;2023-08-06T09:25:40;0.25;;;0.25;;
27402;SDS011;14862;49.494;8.530;2023-08-06T09:28:06;0.50;;;0.50;;
27402;SDS011;14862;49.494;8.530;2023-08-06T09:30:35;0.30;;;0.30;;
27402;SDS011;14862;49.494;8.530;2023-08-06T09:33:00;0.85;;;0.70;;
27402;SDS011;14862;49.494;8.530;2023-08-06T09:35:29;1.02;;;0.88;;
27402;SDS011;14862;49.494;8.530;2023-08-06T09:37:55;1.40;;;1.08;;
27402;SDS011;14862;49.494;8.530;2023-08-06T09:40:33;0.30;;;0.30;;
27402;SDS011;14862;49.494;8.530;2023-08-06T09:42:58;0.50;;;0.40;;
27402;SDS011;14862;49.494;8.530;2023-08-06T09:45:28;0.35;;;0.30;;
27402;SDS011;14862;49.494;8.530;2023-08-06T09:47:56;0.73;;;0.50;;
27402;SDS011;14862;49.494;8.530;2023-08-06T09:50:22;1.08;;;0.50;;
27402;SDS011;14862;49.494;8.530;2023-08-06T09:52:48;1.15;;;0.30;;
27402;SDS011;14862;49.494;8.530;2023-08-06T09:55:13;0.25;;;0.25;;
27402;SDS011;14862;49.494;8.530;2023-08-06T09:57:42;0.45;;;0.45;;
27402;SDS011;14862;49.494;8.530;2023-08-06T10:00:08;4.47;;;1.25;;
27402;SDS011;14862;49.494;8.530;2023-08-06T10:02:34;0.98;;;0.60;;
27402;SDS011;14862;49.494;8.530;2023-08-06T10:05:00;3.10;;;1.92;;
27402;SDS011;14862;49.494;8.530;2023-08-06T10:07:26;2.97;;;1.20;;
27402;SDS011;14862;49.494;8.530;2023-08-06T10:09:52;0.68;;;0.50;;
27402;SDS011;14862;49.494;8.530;2023-08-06T10:12:17;0.77;;;0.77;;
27402;SDS011;14862;49.494;8.530;2023-08-06T10:14:44;0.63;;;0.60;;
27402;SDS011;14862;49.494;8.530;2023-08-06T10:17:10;0.75;;;0.40;;
27402;SDS011;14862;49.494;8.530;2023-08-06T10:19:36;0.30;;;0.30;;
27402;SDS011;14862;49.494;8.530;2023-08-06T10:22:08;0.20;;;0.20;;
27402;SDS011;14862;49.494;8.530;2023-08-06T10:24:49;5.45;;;0.40;;
27402;SDS011;14862;49.494;8.530;2023-08-06T10:27:19;0.10;;;0.10;;
27402;SDS011;14862;49.494;8.530;2023-08-06T10:29:44;0.20;;;0.20;;
27402;SDS011;14862;49.494;8.530;2023-08-06T10:32:10;0.23;;;0.20;;
27402;SDS011;14862;49.494;8.530;2023-08-06T10:37:20;0.35;;;0.15;;
27402;SDS011;14862;49.494;8.530;2023-08-06T10:39:48;0.38;;;0.30;;
27402;SDS011;14862;49.494;8.530;2023-08-06T10:42:26;0.60;;;0.55;;
27402;SDS011;14862;49.494;8.530;2023-08-06T10:45:10;1.90;;;0.50;;
27402;SDS011;14862;49.494;8.530;2023-08-06T10:47:38;0.50;;;0.45;;
27402;SDS011;14862;49.494;8.530;2023-08-06T10:50:07;0.55;;;0.43;;
27402;SDS011;14862;49.494;8.530;2023-08-06T10:52:34;1.92;;;1.35;;
27402;SDS011;14862;49.494;8.530;2023-08-06T10:54:59;0.20;;;0.20;;
27402;SDS011;14862;49.494;8.530;2023-08-06T10:57:24;0.60;;;0.30;;
27402;SDS011;14862;49.494;8.530;2023-08-06T10:59:49;0.43;;;0.30;;
27402;SDS011;14862;49.494;8.530;2023-08-06T11:02:16;1.13;;;0.75;;
27402;SDS011;14862;49.494;8.530;2023-08-06T11:04:41;0.68;;;0.63;;
27402;SDS011;14862;49.494;8.530;2023-08-06T11:07:06;5.05;;;0.55;;
27402;SDS011;14862;49.494;8.530;2023-08-06T11:09:32;0.22;;;0.22;;
27402;SDS011;14862;49.494;8.530;2023-08-06T11:11:57;0.65;;;0.40;;
27402;SDS011;14862;49.494;8.530;2023-08-06T11:14:22;0.30;;;0.30;;
27402;SDS011;14862;49.494;8.530;2023-08-06T11:16:47;0.32;;;0.32;;
27402;SDS011;14862;49.494;8.530;2023-08-06T11:19:13;0.30;;;0.30;;
27402;SDS011;14862;49.494;8.530;2023-08-06T11:21:40;0.95;;;0.40;;
27402;SDS011;14862;49.494;8.530;2023-08-06T11:24:05;0.63;;;0.57;;
27402;SDS011;14862;49.494;8.530;2023-08-06T11:26:30;1.40;;;0.30;;
27402;SDS011;14862;49.494;8.530;2023-08-06T11:28:55;1.67;;;0.50;;
27402;SDS011;14862;49.494;8.530;2023-08-06T11:31:23;1.20;;;0.40;;
27402;SDS011;14862;49.494;8.530;2023-08-06T11:33:52;1.50;;;0.52;;
27402;SDS011;14862;49.494;8.530;2023-08-06T11:36:28;0.43;;;0.43;;
27402;SDS011;14862;49.494;8.530;2023-08-06T11:38:53;4.00;;;0.47;;
27402;SDS011;14862;49.494;8.530;2023-08-06T11:41:18;0.80;;;0.47;;
27402;SDS011;14862;49.494;8.530;2023-08-06T11:43:45;0.80;;;0.50;;
27402;SDS011;14862;49.494;8.530;2023-08-06T11:46:10;1.45;;;0.57;;
27402;SDS011;14862;49.494;8.530;2023-08-06T11:48:50;0.60;;;0.60;;
27402;SDS011;14862;49.494;8.530;2023-08-06T11:51:15;1.90;;;0.90;;
27402;SDS011;14862;49.494;8.530;2023-08-06T11:53:40;0.60;;;0.57;;
27402;SDS011;14862;49.494;8.530;2023-08-06T11:56:06;1.25;;;0.98;;
27402;SDS011;14862;49.494;8.530;2023-08-06T11:58:31;1.52;;;0.70;;
27402;SDS011;14862;49.494;8.530;2023-08-06T12:00:56;1.17;;;0.95;;
27402;SDS011;14862;49.494;8.530;2023-08-06T12:03:23;1.35;;;0.65;;
27402;SDS011;14862;49.494;8.530;2023-08-06T12:05:53;0.93;;;0.73;;
27402;SDS011;14862;49.494;8.530;2023-08-06T12:08:19;2.00;;;1.25;;
27402;SDS011;14862;49.494;8.530;2023-08-06T12:10:44;1.25;;;0.80;;
27402;SDS011;14862;49.494;8.530;2023-08-06T12:13:11;0.82;;;0.80;;
27402;SDS011;14862;49.494;8.530;2023-08-06T12:15:37;0.80;;;0.70;;
27402;SDS011;14862;49.494;8.530;2023-08-06T12:18:03;1.90;;;1.00;;
27402;SDS011;14862;49.494;8.530;2023-08-06T12:20:28;1.60;;;0.95;;
27402;SDS011;14862;49.494;8.530;2023-08-06T12:22:54;1.40;;;0.90;;
27402;SDS011;14862;49.494;8.530;2023-08-06T12:25:19;1.07;;;0.90;;
27402;SDS011;14862;49.494;8.530;2023-08-06T12:27:44;1.10;;;0.93;;
27402;SDS011;14862;49.494;8.530;2023-08-06T12:30:11;1.63;;;0.95;;
27402;SDS011;14862;49.494;8.530;2023-08-06T12:32:37;1.27;;;0.90;;
27402;SDS011;14862;49.494;8.530;2023-08-06T12:35:02;1.02;;;0.75;;
27402;SDS011;14862;49.494;8.530;2023-08-06T12:37:28;1.38;;;1.10;;
27402;SDS011;14862;49.494;8.530;2023-08-06T12:39:53;1.05;;;0.60;;
27402;SDS011;14862;49.494;8.530;2023-08-06T12:42:19;1.57;;;1.10;;
27402;SDS011;14862;49.494;8.530;2023-08-06T12:44:44;0.95;;;0.93;;
27402;SDS011;14862;49.494;8.530;2023-08-06T12:47:09;0.80;;;0.80;;
27402;SDS011;14862;49.494;8.530;2023-08-06T12:49:34;1.23;;;0.93;;
27402;SDS011;14862;49.494;8.530;2023-08-06T12:52:00;1.35;;;0.70;;
27402;SDS011;14862;49.494;8.530;2023-08-06T12:54:25;0.93;;;0.90;;
27402;SDS011;14862;49.494;8.530;2023-08-06T12:56:50;1.83;;;1.00;;
27402;SDS011;14862;49.494;8.530;2023-08-06T12:59:16;1.45;;;0.80;;
27402;SDS011;14862;49.494;8.530;2023-08-06T13:01:42;2.10;;;1.05;;
27402;SDS011;14862;49.494;8.530;2023-08-06T13:04:07;0.70;;;0.68;;
27402;SDS011;14862;49.494;8.530;2023-08-06T13:06:32;2.28;;;0.65;;
27402;SDS011;14862;49.494;8.530;2023-08-06T13:09:10;3.28;;;0.93;;
27402;SDS011;14862;49.494;8.530;2023-08-06T13:11:36;0.82;;;0.80;;
27402;SDS011;14862;49.494;8.530;2023-08-06T13:14:06;1.45;;;0.95;;
27402;SDS011;14862;49.494;8.530;2023-08-06T13:16:32;0.60;;;0.60;;
27402;SDS011;14862;49.494;8.530;2023-08-06T13:18:57;0.93;;;0.80;;
27402;SDS011;14862;49.494;8.530;2023-08-06T13:21:23;2.55;;;0.80;;
27402;SDS011;14862;49.494;8.530;2023-08-06T13:23:48;0.90;;;0.70;;
27402;SDS011;14862;49.494;8.530;2023-08-06T13:26:13;0.97;;;0.70;;
27402;SDS011;14862;49.494;8.530;2023-08-06T13:28:40;1.58;;;0.73;;
27402;SDS011;14862;49.494;8.530;2023-08-06T13:31:06;1.35;;;0.80;;
27402;SDS011;14862;49.494;8.530;2023-08-06T13:33:31;1.13;;;0.70;;
27402;SDS011;14862;49.494;8.530;2023-08-06T13:35:56;0.50;;;0.50;;
27402;SDS011;14862;49.494;8.530;2023-08-06T13:38:22;0.80;;;0.60;;
27402;SDS011;14862;49.494;8.530;2023-08-06T13:40:47;0.65;;;0.60;;
27402;SDS011;14862;49.494;8.530;2023-08-06T13:43:12;5.60;;;2.85;;
27402;SDS011;14862;49.494;8.530;2023-08-06T13:45:38;1.65;;;0.82;;
27402;SDS011;14862;49.494;8.530;2023-08-06T13:48:03;2.00;;;0.80;;
27402;SDS011;14862;49.494;8.530;2023-08-06T13:50:28;2.28;;;0.70;;
27402;SDS011;14862;49.494;8.530;2023-08-06T13:52:54;1.20;;;0.90;;
27402;SDS011;14862;49.494;8.530;2023-08-06T13:55:20;1.30;;;1.20;;
27402;SDS011;14862;49.494;8.530;2023-08-06T13:57:45;1.00;;;0.90;;
27402;SDS011;14862;49.494;8.530;2023-08-06T14:00:11;1.00;;;0.60;;
27402;SDS011;14862;49.494;8.530;2023-08-06T14:02:36;1.95;;;0.65;;
27402;SDS011;14862;49.494;8.530;2023-08-06T14:05:01;1.10;;;0.70;;
27402;SDS011;14862;49.494;8.530;2023-08-06T14:07:27;1.42;;;0.98;;
27402;SDS011;14862;49.494;8.530;2023-08-06T14:09:52;1.77;;;1.17;;
27402;SDS011;14862;49.494;8.530;2023-08-06T14:12:17;1.00;;;0.70;;
27402;SDS011;14862;49.494;8.530;2023-08-06T14:14:42;2.03;;;1.08;;
27402;SDS011;14862;49.494;8.530;2023-08-06T14:17:08;0.80;;;0.60;;
27402;SDS011;14862;49.494;8.530;2023-08-06T14:19:33;1.77;;;0.70;;
27402;SDS011;14862;49.494;8.530;2023-08-06T14:21:58;2.93;;;0.90;;
27402;SDS011;14862;49.494;8.530;2023-08-06T14:24:23;1.30;;;1.00;;
27402;SDS011;14862;49.494;8.530;2023-08-06T14:26:48;1.70;;;1.00;;
27402;SDS011;14862;49.494;8.530;2023-08-06T14:29:14;3.92;;;1.23;;
27402;SDS011;14862;49.494;8.530;2023-08-06T14:31:39;3.00;;;1.40;;
27402;SDS011;14862;49.494;8.530;2023-08-06T14:34:05;1.75;;;0.98;;
27402;SDS011;14862;49.494;8.530;2023-08-06T14:36:30;0.97;;;0.80;;
27402;SDS011;14862;49.494;8.530;2023-08-06T14:38:55;1.00;;;0.80;;
27402;SDS011;14862;49.494;8.530;2023-08-06T14:41:20;2.53;;;1.00;;
27402;SDS011;14862;49.494;8.530;2023-08-06T14:43:46;2.00;;;1.00;;
27402;SDS011;14862;49.494;8.530;2023-08-06T14:46:11;3.57;;;1.87;;
27402;SDS011;14862;49.494;8.530;2023-08-06T14:48:36;1.90;;;1.20;;
27402;SDS011;14862;49.494;8.530;2023-08-06T14:51:01;2.97;;;0.90;;